Time;durP1;ratioP1;P1;durP2;ratioP2;P2;SDS_P1;SDS_P2;PMS_P1;PMS_P2;Temp;Humidity;BMP_temperature;BMP_pressure;BME280_temperature;BME280_humidity;BME280_pressure;Samples;Min_cycle;Max_cycle;Signal;HPM_P1;HPM_P2
2024/04/16 00:00:01;;;;;;;6.50;2.40;;;;;;;;;;5273241;26;20264;-84
2024/04/16 00:02:32;;;;;;;5.13;2.60;;;;;;;;;;5332213;26;20259;-83
2024/04/16 00:05:00;;;;;;;4.77;2.33;;;;;;;;;;5335005;26;20290;-83
2024/04/16 00:07:27;;;;;;;4.43;2.43;;;;;;;;;;5333904;26;20731;-83
2024/04/16 00:09:53;;;;;;;4.87;2.70;;;;;;;;;;5306116;26;20279;-84
2024/04/16 00:12:18;;;;;;;5.13;2.80;;;;;;;;;;5269192;26;20335;-82
2024/04/16 00:15:10;;;;;;;6.07;2.90;;;;;;;;;;5345386;26;20645;-82
2024/04/16 00:17:39;;;;;;;6.23;2.57;;;;;;;;;;5279927;26;20255;-82
2024/04/16 00:20:06;;;;;;;4.93;2.43;;;;;;;;;;5332785;26;20319;-81
2024/04/16 00:22:35;;;;;;;5.20;2.37;;;;;;;;;;5301319;26;20306;-80
2024/04/16 00:25:07;;;;;;;3.50;2.30;;;;;;;;;;5335684;26;20259;-83
2024/04/16 00:27:35;;;;;;;5.10;2.50;;;;;;;;;;5308914;26;20281;-83
2024/04/16 00:30:03;;;;;;;4.10;2.07;;;;;;;;;;5274769;26;20276;-85
2024/04/16 00:32:29;;;;;;;3.60;2.23;;;;;;;;;;5278807;26;20256;-82
2024/04/16 00:34:54;;;;;;;3.47;2.10;;;;;;;;;;5271672;26;20567;-84
2024/04/16 00:37:20;;;;;;;4.83;2.43;;;;;;;;;;5311303;26;20375;-82
2024/04/16 00:39:48;;;;;;;3.03;2.17;;;;;;;;;;5311300;26;20693;-84
2024/04/16 00:42:15;;;;;;;4.47;2.03;;;;;;;;;;5307688;26;20287;-86
2024/04/16 00:44:40;;;;;;;4.53;2.20;;;;;;;;;;5335330;26;20252;-85
2024/04/16 00:47:07;;;;;;;2.80;2.47;;;;;;;;;;5313701;26;20273;-85
2024/04/16 00:49:33;;;;;;;3.30;2.00;;;;;;;;;;5340710;26;20254;-84
2024/04/16 00:51:58;;;;;;;2.77;2.00;;;;;;;;;;5300898;26;20255;-84
2024/04/16 00:54:26;;;;;;;4.03;2.10;;;;;;;;;;5280403;26;20256;-83
2024/04/16 00:56:55;;;;;;;4.70;1.97;;;;;;;;;;5344837;26;20301;-83
2024/04/16 00:59:23;;;;;;;3.63;2.07;;;;;;;;;;5356278;26;20337;-84
2024/04/16 01:01:51;;;;;;;3.93;2.23;;;;;;;;;;5335208;26;20278;-82
2024/04/16 01:04:21;;;;;;;3.73;1.90;;;;;;;;;;5320899;26;20252;-83
2024/04/16 01:06:52;;;;;;;2.60;1.87;;;;;;;;;;5351130;26;20263;-85
2024/04/16 01:09:18;;;;;;;4.20;2.00;;;;;;;;;;5279928;26;20361;-87
2024/04/16 01:11:46;;;;;;;2.00;1.90;;;;;;;;;;5277419;26;20624;-84
2024/04/16 01:14:16;;;;;;;4.00;1.70;;;;;;;;;;5269716;26;20283;-82
2024/04/16 01:16:41;;;;;;;2.40;1.70;;;;;;;;;;5303918;26;22958;-86
2024/04/16 01:19:10;;;;;;;2.10;1.70;;;;;;;;;;5303776;26;20268;-86
2024/04/16 01:21:36;;;;;;;2.20;1.70;;;;;;;;;;5273485;26;20259;-84
2024/04/16 01:24:01;;;;;;;2.77;1.90;;;;;;;;;;5281569;26;20255;-83
2024/04/16 01:26:29;;;;;;;4.70;1.90;;;;;;;;;;5274582;26;20264;-84
2024/04/16 01:28:54;;;;;;;4.47;2.03;;;;;;;;;;5280245;26;20256;-86
2024/04/16 01:31:21;;;;;;;2.57;2.07;;;;;;;;;;5302363;26;20306;-87
2024/04/16 01:33:49;;;;;;;3.07;1.90;;;;;;;;;;5312219;26;20980;-85
2024/04/16 01:36:19;;;;;;;3.63;1.90;;;;;;;;;;5321289;26;20264;-86
2024/04/16 01:38:45;;;;;;;1.90;1.70;;;;;;;;;;5300948;26;20319;-85
2024/04/16 01:41:12;;;;;;;2.67;1.87;;;;;;;;;;5360812;26;20304;-84
2024/04/16 01:43:43;;;;;;;3.33;1.67;;;;;;;;;;5325602;26;20251;-84
2024/04/16 01:46:11;;;;;;;3.90;1.70;;;;;;;;;;5305109;26;20260;-84
2024/04/16 01:48:41;;;;;;;2.07;1.67;;;;;;;;;;5336173;26;20319;-83
2024/04/16 01:51:14;;;;;;;3.23;1.80;;;;;;;;;;5347000;26;20260;-83
2024/04/16 01:53:42;;;;;;;2.53;1.80;;;;;;;;;;5330141;26;20268;-84
2024/04/16 01:56:12;;;;;;;3.07;1.50;;;;;;;;;;5320509;26;20258;-81
2024/04/16 01:58:40;;;;;;;2.63;1.60;;;;;;;;;;5319905;26;20771;-83
2024/04/16 02:01:09;;;;;;;1.83;1.53;;;;;;;;;;5314033;26;20258;-84
2024/04/16 02:03:34;;;;;;;2.53;1.60;;;;;;;;;;5297605;26;20303;-83
2024/04/16 02:06:04;;;;;;;3.07;1.63;;;;;;;;;;5282840;26;20255;-86
2024/04/16 02:08:32;;;;;;;1.87;1.60;;;;;;;;;;5292843;26;20286;-82
2024/04/16 02:11:00;;;;;;;4.10;1.60;;;;;;;;;;5282755;26;20255;-83
2024/04/16 02:13:26;;;;;;;2.17;1.50;;;;;;;;;;5269982;26;20248;-84
2024/04/16 02:15:51;;;;;;;3.17;1.40;;;;;;;;;;5306810;26;20606;-84
2024/04/16 02:18:20;;;;;;;1.37;1.27;;;;;;;;;;5298916;26;20690;-81
2024/04/16 02:20:47;;;;;;;1.30;1.20;;;;;;;;;;5297897;26;20263;-83
2024/04/16 02:23:15;;;;;;;1.80;1.10;;;;;;;;;;5271666;26;21043;-85
2024/04/16 02:25:47;;;;;;;2.27;1.37;;;;;;;;;;5295703;26;20260;-82
2024/04/16 02:28:12;;;;;;;1.33;1.23;;;;;;;;;;5335040;26;20309;-85
2024/04/16 02:30:38;;;;;;;1.83;1.40;;;;;;;;;;5307637;26;20271;-84
2024/04/16 02:33:03;;;;;;;1.83;1.50;;;;;;;;;;5312563;26;20305;-85
2024/04/16 02:35:32;;;;;;;1.90;1.43;;;;;;;;;;5275572;26;20262;-85
2024/04/16 02:37:57;;;;;;;3.97;1.70;;;;;;;;;;5285499;26;20259;-83
2024/04/16 02:40:26;;;;;;;1.77;1.60;;;;;;;;;;5272743;26;20319;-86
2024/04/16 02:42:51;;;;;;;2.53;1.80;;;;;;;;;;5308088;26;20263;-82
2024/04/16 02:45:17;;;;;;;2.10;1.77;;;;;;;;;;5305888;26;20252;-85
2024/04/16 02:47:42;;;;;;;2.87;1.80;;;;;;;;;;5284437;26;20732;-84
2024/04/16 02:50:11;;;;;;;2.77;1.97;;;;;;;;;;5329850;26;20377;-83
2024/04/16 02:52:36;;;;;;;2.70;1.93;;;;;;;;;;5267231;26;20804;-84
2024/04/16 02:55:03;;;;;;;2.27;1.90;;;;;;;;;;5331946;26;20381;-85
2024/04/16 02:57:28;;;;;;;1.93;1.83;;;;;;;;;;5324698;26;20259;-82
2024/04/16 02:59:56;;;;;;;2.20;1.83;;;;;;;;;;5295515;26;20258;-85
2024/04/16 03:02:21;;;;;;;2.40;2.00;;;;;;;;;;5299151;26;20337;-84
2024/04/16 03:04:47;;;;;;;1.87;1.47;;;;;;;;;;5329754;26;20392;-84
2024/04/16 03:07:12;;;;;;;2.93;1.77;;;;;;;;;;5274791;26;20300;-83
2024/04/16 03:09:38;;;;;;;1.53;1.43;;;;;;;;;;5325836;26;20304;-83
2024/04/16 03:12:03;;;;;;;1.40;1.30;;;;;;;;;;5282749;26;20667;-83
2024/04/16 03:14:31;;;;;;;1.93;1.40;;;;;;;;;;5306926;26;20356;-82
2024/04/16 03:17:03;;;;;;;1.70;1.50;;;;;;;;;;5360741;26;20274;-82
2024/04/16 03:19:29;;;;;;;2.10;1.63;;;;;;;;;;5338552;26;20267;-83
2024/04/16 03:21:56;;;;;;;2.33;1.60;;;;;;;;;;5305485;26;20740;-86
2024/04/16 03:24:22;;;;;;;3.20;1.70;;;;;;;;;;5310803;26;26336;-84
2024/04/16 03:26:50;;;;;;;1.50;1.40;;;;;;;;;;5309134;26;20302;-86
2024/04/16 03:29:15;;;;;;;2.17;1.20;;;;;;;;;;5302455;26;20270;-82
2024/04/16 03:31:43;;;;;;;1.20;1.10;;;;;;;;;;5266198;26;20255;-84
2024/04/16 03:34:11;;;;;;;1.53;1.20;;;;;;;;;;5306385;26;20295;-84
2024/04/16 03:36:36;;;;;;;2.33;1.10;;;;;;;;;;5328021;26;20268;-84
2024/04/16 03:39:02;;;;;;;1.40;1.30;;;;;;;;;;5317000;26;20282;-81
2024/04/16 03:41:30;;;;;;;2.63;1.50;;;;;;;;;;5311807;26;20357;-85
2024/04/16 03:44:00;;;;;;;1.63;1.40;;;;;;;;;;5274789;26;20364;-87
2024/04/16 03:46:26;;;;;;;2.07;1.37;;;;;;;;;;5281584;26;20741;-85
2024/04/16 03:48:52;;;;;;;2.20;1.23;;;;;;;;;;5311582;26;20763;-85
2024/04/16 03:51:17;;;;;;;1.87;1.40;;;;;;;;;;5296477;26;20255;-83
2024/04/16 03:53:43;;;;;;;1.47;1.10;;;;;;;;;;5272911;26;20259;-82
2024/04/16 03:56:08;;;;;;;2.73;1.37;;;;;;;;;;5302049;26;21170;-83
2024/04/16 04:02:21;;;;;;;2.57;1.50;;;;;;;;;;5331480;26;20302;-83
2024/04/16 04:04:47;;;;;;;2.77;1.47;;;;;;;;;;5333781;26;20255;-83
2024/04/16 04:07:14;;;;;;;2.60;1.80;;;;;;;;;;5301455;26;20353;-86
2024/04/16 04:09:45;;;;;;;2.60;1.77;;;;;;;;;;5302179;26;20745;-84
2024/04/16 04:12:15;;;;;;;2.77;2.20;;;;;;;;;;5299764;26;20251;-84
2024/04/16 04:14:43;;;;;;;2.17;1.97;;;;;;;;;;5325897;26;20262;-83
2024/04/16 04:17:08;;;;;;;2.50;2.30;;;;;;;;;;5315589;26;20666;-83
2024/04/16 04:19:34;;;;;;;2.60;2.00;;;;;;;;;;5278559;26;20286;-82
2024/04/16 04:22:02;;;;;;;2.13;1.93;;;;;;;;;;5316020;26;20255;-81
2024/04/16 04:24:27;;;;;;;2.40;2.20;;;;;;;;;;5344505;26;20289;-83
2024/04/16 04:26:53;;;;;;;2.43;2.23;;;;;;;;;;5335650;26;20259;-84
2024/04/16 04:29:19;;;;;;;2.33;2.13;;;;;;;;;;5285082;26;20259;-82
2024/04/16 04:31:44;;;;;;;2.37;2.17;;;;;;;;;;5298778;26;20268;-85
2024/04/16 04:34:10;;;;;;;3.30;2.27;;;;;;;;;;5334048;26;20263;-85
2024/04/16 04:36:35;;;;;;;2.50;2.30;;;;;;;;;;5275878;26;20728;-86
2024/04/16 04:39:01;;;;;;;2.50;2.30;;;;;;;;;;5281228;26;20274;-83
2024/04/16 04:41:26;;;;;;;3.07;2.60;;;;;;;;;;5271189;26;20262;-85
2024/04/16 04:43:54;;;;;;;3.60;2.40;;;;;;;;;;5336631;26;20252;-86
2024/04/16 04:46:19;;;;;;;2.40;2.20;;;;;;;;;;5333682;26;20256;-84
2024/04/16 04:48:45;;;;;;;2.50;2.23;;;;;;;;;;5315930;26;20354;-83
2024/04/16 04:51:10;;;;;;;3.03;2.63;;;;;;;;;;5310788;26;20368;-81
2024/04/16 04:53:40;;;;;;;2.60;2.40;;;;;;;;;;5307328;26;20272;-86
2024/04/16 04:56:07;;;;;;;4.13;2.80;;;;;;;;;;5296060;26;20619;-87
2024/04/16 04:58:33;;;;;;;3.03;2.80;;;;;;;;;;5302482;26;20753;-84
2024/04/16 05:01:01;;;;;;;3.13;2.83;;;;;;;;;;5272148;26;20267;-86
2024/04/16 05:03:29;;;;;;;3.93;3.20;;;;;;;;;;5316231;26;20259;-83
2024/04/16 05:05:55;;;;;;;3.73;2.90;;;;;;;;;;5300963;26;20294;-84
2024/04/16 05:08:28;;;;;;;3.97;3.20;;;;;;;;;;5272510;26;20259;-84
2024/04/16 05:10:56;;;;;;;3.27;3.07;;;;;;;;;;5337668;26;20336;-85
2024/04/16 05:13:26;;;;;;;4.67;3.13;;;;;;;;;;5275824;26;20580;-84
2024/04/16 05:15:53;;;;;;;3.33;2.93;;;;;;;;;;5308345;26;20274;-84
2024/04/16 05:18:23;;;;;;;3.87;3.10;;;;;;;;;;5332246;26;20375;-83
2024/04/16 05:20:49;;;;;;;4.63;3.10;;;;;;;;;;5320004;26;20345;-80
2024/04/16 05:23:19;;;;;;;4.73;3.70;;;;;;;;;;5287142;26;20390;-81
2024/04/16 05:25:52;;;;;;;4.27;2.90;;;;;;;;;;5283773;26;20266;-85
2024/04/16 05:28:23;;;;;;;3.40;3.10;;;;;;;;;;5315098;26;20263;-85
2024/04/16 05:30:51;;;;;;;4.93;3.17;;;;;;;;;;5312966;26;20264;-86
2024/04/16 05:33:17;;;;;;;3.70;3.27;;;;;;;;;;5299643;26;20366;-85
2024/04/16 05:35:42;;;;;;;5.03;2.90;;;;;;;;;;5306478;26;20293;-83
2024/04/16 05:38:10;;;;;;;3.10;2.80;;;;;;;;;;5320746;26;20259;-84
2024/04/16 05:40:35;;;;;;;4.90;2.87;;;;;;;;;;5316826;26;20260;-85
2024/04/16 05:43:01;;;;;;;3.67;3.07;;;;;;;;;;5330661;26;20297;-85
2024/04/16 05:45:26;;;;;;;4.47;2.73;;;;;;;;;;5272715;26;20271;-86
2024/04/16 05:47:52;;;;;;;6.17;3.77;;;;;;;;;;5279073;26;20337;-84
2024/04/16 05:50:17;;;;;;;5.40;4.53;;;;;;;;;;5314642;26;20356;-87
2024/04/16 05:52:43;;;;;;;4.30;3.30;;;;;;;;;;5307364;26;20271;-85
2024/04/16 05:55:09;;;;;;;3.40;3.10;;;;;;;;;;5358584;26;20268;-84
2024/04/16 05:57:39;;;;;;;6.03;3.60;;;;;;;;;;5276731;26;20310;-86
2024/04/16 06:00:07;;;;;;;3.40;3.10;;;;;;;;;;5299058;26;20264;-88
2024/04/16 06:02:35;;;;;;;3.67;3.00;;;;;;;;;;5295694;26;20819;-84
2024/04/16 06:05:05;;;;;;;4.37;2.80;;;;;;;;;;5284652;26;20258;-85
2024/04/16 06:07:30;;;;;;;3.97;3.57;;;;;;;;;;5268273;26;20289;-79
2024/04/16 06:09:59;;;;;;;3.63;3.33;;;;;;;;;;5328612;26;20258;-79
2024/04/16 06:12:24;;;;;;;5.30;3.63;;;;;;;;;;5331709;26;20259;-79
2024/04/16 06:14:50;;;;;;;4.70;3.60;;;;;;;;;;5332728;26;20299;-79
2024/04/16 06:17:17;;;;;;;3.30;3.00;;;;;;;;;;5297614;26;20263;-79
2024/04/16 06:19:44;;;;;;;4.97;4.00;;;;;;;;;;5336105;26;20362;-80
2024/04/16 06:22:10;;;;;;;5.87;3.97;;;;;;;;;;5269315;26;20255;-80
2024/04/16 06:24:35;;;;;;;6.07;3.77;;;;;;;;;;5312422;26;20314;-79
2024/04/16 06:27:02;;;;;;;6.47;4.27;;;;;;;;;;5309535;26;20263;-79
2024/04/16 06:29:30;;;;;;;6.70;4.50;;;;;;;;;;5331089;26;20361;-80
2024/04/16 06:31:56;;;;;;;7.07;4.80;;;;;;;;;;5296920;26;20336;-79
2024/04/16 06:34:21;;;;;;;6.57;4.43;;;;;;;;;;5270163;26;20251;-79
2024/04/16 06:36:47;;;;;;;6.87;4.50;;;;;;;;;;5330645;26;20729;-78
2024/04/16 06:39:14;;;;;;;5.90;4.97;;;;;;;;;;5358067;26;20297;-79
2024/04/16 06:41:41;;;;;;;8.77;4.80;;;;;;;;;;5303545;26;20737;-79
2024/04/16 06:44:06;;;;;;;7.97;4.80;;;;;;;;;;5278038;26;20287;-77
2024/04/16 06:46:32;;;;;;;8.97;6.17;;;;;;;;;;5336987;26;20248;-78
2024/04/16 06:49:00;;;;;;;9.50;5.70;;;;;;;;;;5335946;26;20337;-78
2024/04/16 06:51:25;;;;;;;22.50;14.27;;;;;;;;;;5367694;26;20259;-77
2024/04/16 06:53:51;;;;;;;7.27;6.57;;;;;;;;;;5301548;26;20264;-77
2024/04/16 06:56:16;;;;;;;10.03;7.40;;;;;;;;;;5335278;26;20309;-78
2024/04/16 06:58:42;;;;;;;8.13;5.60;;;;;;;;;;5339555;26;20260;-79
2024/04/16 07:01:11;;;;;;;6.10;4.70;;;;;;;;;;5358585;26;20298;-80
2024/04/16 07:03:44;;;;;;;8.53;5.23;;;;;;;;;;5330167;26;20255;-79
2024/04/16 07:06:11;;;;;;;6.57;5.27;;;;;;;;;;5275067;26;20341;-80
2024/04/16 07:08:37;;;;;;;9.93;5.17;;;;;;;;;;5326519;26;20299;-79
2024/04/16 07:11:02;;;;;;;7.80;5.90;;;;;;;;;;5298015;26;20286;-77
2024/04/16 07:13:30;;;;;;;6.83;5.00;;;;;;;;;;5299819;26;20613;-79
2024/04/16 07:15:56;;;;;;;6.87;4.80;;;;;;;;;;5279691;26;20741;-79
2024/04/16 07:18:24;;;;;;;6.87;5.13;;;;;;;;;;5334163;26;20251;-79
2024/04/16 07:20:49;;;;;;;8.03;5.13;;;;;;;;;;5326794;26;20283;-79
2024/04/16 07:23:15;;;;;;;7.70;4.87;;;;;;;;;;5304055;26;20713;-79
2024/04/16 07:25:44;;;;;;;9.07;6.27;;;;;;;;;;5337795;26;20294;-79
2024/04/16 07:28:14;;;;;;;27.33;17.73;;;;;;;;;;5330530;26;20342;-77
2024/04/16 07:30:48;;;;;;;6.90;5.13;;;;;;;;;;5327456;26;20690;-79
2024/04/16 07:33:14;;;;;;;6.90;4.87;;;;;;;;;;5282475;26;20314;-80
2024/04/16 07:35:44;;;;;;;8.07;4.87;;;;;;;;;;5352576;26;20247;-78
2024/04/16 07:38:11;;;;;;;7.00;4.70;;;;;;;;;;5300724;26;20300;-79
2024/04/16 07:40:37;;;;;;;7.17;4.90;;;;;;;;;;5282626;26;20274;-80
2024/04/16 07:43:05;;;;;;;6.40;4.93;;;;;;;;;;5357039;26;21283;-79
2024/04/16 07:45:30;;;;;;;6.67;5.50;;;;;;;;;;5334832;26;20289;-79
2024/04/16 07:47:56;;;;;;;7.67;5.40;;;;;;;;;;5329923;26;20270;-80
2024/04/16 07:50:22;;;;;;;6.47;5.30;;;;;;;;;;5306486;26;20330;-79
2024/04/16 07:52:47;;;;;;;7.07;5.30;;;;;;;;;;5331213;26;20307;-79
2024/04/16 07:55:13;;;;;;;6.43;5.33;;;;;;;;;;5302570;26;20262;-79
2024/04/16 07:57:38;;;;;;;7.67;5.43;;;;;;;;;;5320404;26;20258;-77
2024/04/16 08:00:04;;;;;;;5.60;4.93;;;;;;;;;;5329239;26;20741;-76
2024/04/16 08:02:37;;;;;;;6.33;4.50;;;;;;;;;;5328350;26;20301;-79
2024/04/16 08:05:02;;;;;;;7.43;4.63;;;;;;;;;;5341447;26;20252;-78
2024/04/16 08:07:28;;;;;;;5.90;4.70;;;;;;;;;;5299546;26;20292;-80
2024/04/16 08:09:56;;;;;;;6.03;4.53;;;;;;;;;;5327966;26;20327;-79
2024/04/16 08:12:21;;;;;;;5.40;4.90;;;;;;;;;;5307706;26;20267;-79
2024/04/16 08:14:49;;;;;;;5.50;4.70;;;;;;;;;;5331187;26;20298;-77
2024/04/16 08:17:16;;;;;;;5.17;4.67;;;;;;;;;;5331405;26;20259;-78
2024/04/16 08:19:46;;;;;;;6.23;4.70;;;;;;;;;;5330454;26;20259;-80
2024/04/16 08:22:12;;;;;;;5.43;4.87;;;;;;;;;;5274397;26;20289;-79
2024/04/16 08:24:38;;;;;;;5.97;4.53;;;;;;;;;;5311718;26;20264;-79
2024/04/16 08:27:06;;;;;;;5.80;3.97;;;;;;;;;;5299889;26;20298;-76
2024/04/16 08:29:31;;;;;;;4.90;4.40;;;;;;;;;;5295613;26;20256;-77
2024/04/16 08:31:57;;;;;;;6.27;4.30;;;;;;;;;;5302702;26;20294;-78
2024/04/16 08:34:22;;;;;;;7.07;4.50;;;;;;;;;;5334790;26;21259;-78
2024/04/16 08:36:48;;;;;;;5.87;4.10;;;;;;;;;;5327542;26;20298;-78
2024/04/16 08:39:13;;;;;;;5.27;3.80;;;;;;;;;;5327837;26;20255;-76
2024/04/16 08:41:39;;;;;;;3.90;3.50;;;;;;;;;;5301535;26;20326;-78
2024/04/16 08:44:05;;;;;;;4.60;3.50;;;;;;;;;;5324842;26;20375;-76
2024/04/16 08:46:33;;;;;;;5.70;3.53;;;;;;;;;;5318417;26;20380;-78
2024/04/16 08:49:01;;;;;;;18.80;12.87;;;;;;;;;;5301153;26;20258;-78
2024/04/16 08:51:27;;;;;;;8.10;5.90;;;;;;;;;;5308532;26;20406;-78
2024/04/16 08:53:55;;;;;;;5.80;4.00;;;;;;;;;;5297923;26;20302;-78
2024/04/16 08:56:20;;;;;;;3.67;2.70;;;;;;;;;;5336754;26;20437;-77
2024/04/16 08:58:49;;;;;;;4.77;2.50;;;;;;;;;;5297063;26;20283;-78
2024/04/16 09:01:14;;;;;;;3.67;1.90;;;;;;;;;;5301043;26;20266;-79
2024/04/16 09:03:43;;;;;;;2.87;1.73;;;;;;;;;;5279445;26;20263;-79
2024/04/16 09:06:08;;;;;;;4.47;1.80;;;;;;;;;;5326514;26;20357;-78
2024/04/16 09:08:38;;;;;;;4.83;2.23;;;;;;;;;;5333716;26;20676;-78
2024/04/16 09:11:06;;;;;;;3.70;2.27;;;;;;;;;;5274268;26;20283;-79
2024/04/16 09:13:40;;;;;;;3.30;2.60;;;;;;;;;;5301496;26;20276;-78
2024/04/16 09:16:06;;;;;;;3.80;2.80;;;;;;;;;;5330058;26;20259;-77
2024/04/16 09:18:32;;;;;;;3.10;2.33;;;;;;;;;;5286068;26;20331;-76
2024/04/16 09:20:58;;;;;;;2.60;2.17;;;;;;;;;;5332440;26;20259;-78
2024/04/16 09:23:24;;;;;;;3.30;2.13;;;;;;;;;;5330711;26;20259;-76
2024/04/16 09:25:49;;;;;;;4.27;2.30;;;;;;;;;;5269589;26;20373;-78
2024/04/16 09:28:17;;;;;;;2.77;2.07;;;;;;;;;;5299283;26;20274;-79
2024/04/16 09:30:56;;;;;;;3.67;2.10;;;;;;;;;;5302417;26;20297;-77
2024/04/16 09:33:21;;;;;;;3.13;2.20;;;;;;;;;;5329078;26;20298;-78
2024/04/16 09:35:50;;;;;;;2.83;2.33;;;;;;;;;;5311610;26;20306;-86
2024/04/16 09:38:15;;;;;;;2.87;2.40;;;;;;;;;;5339826;26;20619;-85
2024/04/16 09:40:41;;;;;;;3.77;2.23;;;;;;;;;;5316921;26;20267;-85
2024/04/16 09:43:09;;;;;;;4.10;2.30;;;;;;;;;;5316743;26;20264;-83
2024/04/16 09:45:35;;;;;;;3.83;2.00;;;;;;;;;;5334333;26;20360;-83
2024/04/16 09:48:01;;;;;;;3.87;2.10;;;;;;;;;;5315255;26;20272;-85
2024/04/16 09:50:26;;;;;;;3.03;2.00;;;;;;;;;;5317306;26;21147;-84
2024/04/16 09:52:53;;;;;;;2.97;2.07;;;;;;;;;;5304998;26;20305;-85
2024/04/16 09:55:22;;;;;;;4.07;2.27;;;;;;;;;;5311102;26;20260;-84
2024/04/16 09:57:48;;;;;;;3.83;3.20;;;;;;;;;;5285584;26;20260;-85
2024/04/16 10:00:14;;;;;;;33.33;18.17;;;;;;;;;;5289883;26;20285;-85
2024/04/16 10:02:39;;;;;;;5.93;3.93;;;;;;;;;;5312958;26;20278;-85
2024/04/16 10:05:11;;;;;;;6.57;4.60;;;;;;;;;;5338548;26;20279;-87
2024/04/16 10:07:44;;;;;;;3.10;2.90;;;;;;;;;;5357678;26;20260;-86
2024/04/16 10:10:10;;;;;;;2.97;1.70;;;;;;;;;;5315206;26;20285;-87
2024/04/16 10:12:38;;;;;;;3.70;1.60;;;;;;;;;;5316008;26;20266;-86
2024/04/16 10:15:07;;;;;;;3.93;1.60;;;;;;;;;;5312719;26;20252;-85
2024/04/16 10:17:35;;;;;;;4.20;1.47;;;;;;;;;;5286305;26;20259;-86
2024/04/16 10:20:14;;;;;;;3.30;1.60;;;;;;;;;;5277722;26;20260;-86
2024/04/16 10:22:39;;;;;;;3.37;1.60;;;;;;;;;;5318407;26;20336;-85
2024/04/16 10:25:05;;;;;;;2.77;1.40;;;;;;;;;;5310879;26;20290;-84
2024/04/16 10:27:32;;;;;;;2.33;1.40;;;;;;;;;;5305076;26;20268;-85
2024/04/16 10:30:09;;;;;;;3.00;1.63;;;;;;;;;;5308368;26;20263;-85
2024/04/16 10:32:42;;;;;;;2.23;1.50;;;;;;;;;;5283412;26;20263;-86
2024/04/16 10:35:12;;;;;;;3.63;1.50;;;;;;;;;;5308487;26;20365;-84
2024/04/16 10:37:38;;;;;;;3.23;1.40;;;;;;;;;;5310616;26;20310;-87
2024/04/16 10:40:06;;;;;;;4.10;1.60;;;;;;;;;;5293201;26;20778;-87
2024/04/16 10:42:36;;;;;;;2.40;1.40;;;;;;;;;;5298729;26;20248;-86
2024/04/16 10:45:04;;;;;;;2.13;1.40;;;;;;;;;;5317870;26;20256;-86
2024/04/16 10:47:29;;;;;;;2.43;1.30;;;;;;;;;;5306330;26;20297;-87
2024/04/16 10:49:58;;;;;;;1.97;1.10;;;;;;;;;;5291896;26;20355;-86
2024/04/16 10:52:23;;;;;;;2.83;1.10;;;;;;;;;;5326982;26;20339;-86
2024/04/16 10:54:53;;;;;;;2.05;1.10;;;;;;;;;;5286036;26;20255;-86
2024/04/16 10:57:21;;;;;;;2.50;1.40;;;;;;;;;;5315679;26;20288;-87
2024/04/16 10:59:47;;;;;;;2.47;1.25;;;;;;;;;;5311763;26;20262;-85
2024/04/16 11:02:15;;;;;;;3.15;1.40;;;;;;;;;;5274037;26;20251;-86
2024/04/16 11:04:41;;;;;;;2.53;1.40;;;;;;;;;;5307830;26;20248;-87
2024/04/16 11:07:12;;;;;;;2.13;1.23;;;;;;;;;;5306114;26;20264;-87
2024/04/16 11:09:38;;;;;;;5.30;1.30;;;;;;;;;;5305316;26;20974;-86
2024/04/16 11:12:04;;;;;;;3.23;1.40;;;;;;;;;;5299574;26;20302;-85
2024/04/16 11:14:30;;;;;;;1.93;1.30;;;;;;;;;;5309854;26;20259;-85
2024/04/16 11:16:57;;;;;;;1.95;1.25;;;;;;;;;;5284817;26;20317;-85
2024/04/16 11:19:26;;;;;;;3.88;1.40;;;;;;;;;;5313483;26;20302;-85
2024/04/16 11:21:51;;;;;;;4.78;2.15;;;;;;;;;;5304009;26;20290;-86
2024/04/16 11:24:18;;;;;;;2.60;1.40;;;;;;;;;;5341620;26;20262;-85
2024/04/16 11:26:43;;;;;;;1.92;1.20;;;;;;;;;;5365365;26;21438;-85
2024/04/16 11:29:09;;;;;;;2.42;1.35;;;;;;;;;;5309301;26;20340;-85
2024/04/16 11:31:39;;;;;;;2.97;1.30;;;;;;;;;;5302705;26;20293;-85
2024/04/16 11:34:09;;;;;;;2.47;1.20;;;;;;;;;;5281901;26;20724;-85
2024/04/16 11:36:35;;;;;;;2.47;1.10;;;;;;;;;;5286501;26;20294;-85
2024/04/16 11:39:05;;;;;;;2.08;1.23;;;;;;;;;;5309932;26;20255;-86
2024/04/16 11:41:30;;;;;;;2.03;1.20;;;;;;;;;;5303606;26;20344;-86
2024/04/16 11:44:01;;;;;;;2.95;1.40;;;;;;;;;;5286203;26;20251;-88
2024/04/16 11:46:29;;;;;;;2.42;1.30;;;;;;;;;;5316884;26;20821;-86
2024/04/16 11:48:54;;;;;;;1.92;1.20;;;;;;;;;;5307444;26;20270;-86
2024/04/16 11:51:23;;;;;;;3.03;1.40;;;;;;;;;;5341557;26;20291;-85
2024/04/16 11:53:51;;;;;;;2.93;1.30;;;;;;;;;;5300550;26;20259;-84
2024/04/16 11:56:16;;;;;;;1.90;1.37;;;;;;;;;;5271257;26;20289;-85
2024/04/16 11:58:42;;;;;;;2.40;1.40;;;;;;;;;;5305877;26;20251;-84
2024/04/16 12:01:11;;;;;;;1.77;1.40;;;;;;;;;;5333276;26;20369;-83
2024/04/16 12:03:37;;;;;;;2.33;1.20;;;;;;;;;;5284384;26;20263;-90
2024/04/16 12:06:03;;;;;;;3.67;1.38;;;;;;;;;;5332241;26;20259;-86
2024/04/16 12:08:30;;;;;;;1.50;1.30;;;;;;;;;;5338019;26;20472;-86
2024/04/16 12:10:58;;;;;;;5.05;1.77;;;;;;;;;;5289194;26;20295;-86
2024/04/16 12:13:26;;;;;;;2.20;1.20;;;;;;;;;;5341758;26;20367;-86
2024/04/16 12:15:52;;;;;;;2.90;1.20;;;;;;;;;;5310901;26;20263;-85
2024/04/16 12:18:22;;;;;;;1.70;1.07;;;;;;;;;;5333709;26;20308;-86
2024/04/16 12:20:48;;;;;;;2.50;1.13;;;;;;;;;;5315938;26;20701;-86
2024/04/16 12:23:17;;;;;;;1.53;1.10;;;;;;;;;;5318979;26;20309;-85
2024/04/16 12:25:45;;;;;;;2.40;1.20;;;;;;;;;;5308696;26;20767;-84
2024/04/16 12:28:10;;;;;;;3.03;1.15;;;;;;;;;;5334778;26;20304;-85
2024/04/16 12:30:36;;;;;;;2.33;0.87;;;;;;;;;;5279694;26;20621;-84
2024/04/16 12:33:02;;;;;;;2.35;0.95;;;;;;;;;;5301773;26;20256;-84
2024/04/16 12:35:27;;;;;;;1.65;0.77;;;;;;;;;;5306964;26;20658;-85
2024/04/16 12:37:57;;;;;;;1.48;0.70;;;;;;;;;;5282360;26;20263;-85
2024/04/16 12:40:23;;;;;;;2.42;1.00;;;;;;;;;;5337224;26;20301;-87
2024/04/16 12:42:51;;;;;;;2.22;1.33;;;;;;;;;;5312815;26;20320;-88
2024/04/16 12:45:19;;;;;;;1.70;0.90;;;;;;;;;;5292944;26;21095;-86
2024/04/16 12:47:47;;;;;;;2.92;1.15;;;;;;;;;;5317932;26;20649;-85
2024/04/16 12:50:17;;;;;;;2.70;1.00;;;;;;;;;;5316087;26;20405;-85
2024/04/16 12:52:42;;;;;;;2.28;0.90;;;;;;;;;;5310613;26;20298;-85
2024/04/16 12:55:08;;;;;;;2.30;0.98;;;;;;;;;;5334457;26;20262;-85
2024/04/16 12:57:34;;;;;;;1.50;1.00;;;;;;;;;;5310401;26;20255;-83
2024/04/16 13:00:01;;;;;;;1.67;0.90;;;;;;;;;;5320702;26;20267;-84
2024/04/16 13:02:29;;;;;;;1.63;0.80;;;;;;;;;;5285604;26;20310;-84
2024/04/16 13:04:54;;;;;;;1.23;0.85;;;;;;;;;;5335290;26;20297;-85
2024/04/16 13:07:22;;;;;;;3.05;1.05;;;;;;;;;;5338252;26;20309;-85
2024/04/16 13:09:50;;;;;;;2.42;1.08;;;;;;;;;;5320829;26;20251;-87
2024/04/16 13:12:15;;;;;;;1.27;0.80;;;;;;;;;;5286289;26;20378;-84
2024/04/16 13:14:43;;;;;;;2.07;1.00;;;;;;;;;;5323494;26;20748;-86
2024/04/16 13:17:15;;;;;;;1.23;1.10;;;;;;;;;;5282862;26;20262;-85
2024/04/16 13:19:40;;;;;;;1.40;1.30;;;;;;;;;;5309053;26;20308;-83
2024/04/16 13:22:09;;;;;;;2.38;1.27;;;;;;;;;;5295120;26;20258;-84
2024/04/16 13:24:37;;;;;;;1.90;1.33;;;;;;;;;;5346879;26;20355;-84
2024/04/16 13:27:03;;;;;;;2.30;1.10;;;;;;;;;;5327089;26;20310;-88
2024/04/16 13:29:28;;;;;;;2.53;1.23;;;;;;;;;;5308828;26;20270;-84
2024/04/16 13:31:56;;;;;;;2.03;1.52;;;;;;;;;;5306477;26;20283;-85
2024/04/16 13:34:21;;;;;;;2.97;1.50;;;;;;;;;;5339779;26;20322;-83
2024/04/16 13:36:49;;;;;;;1.70;1.40;;;;;;;;;;5368357;26;20744;-83
2024/04/16 13:39:23;;;;;;;2.78;1.58;;;;;;;;;;5366172;26;20254;-85
2024/04/16 13:41:50;;;;;;;1.58;1.48;;;;;;;;;;5315020;26;20263;-87
2024/04/16 13:44:19;;;;;;;2.63;1.80;;;;;;;;;;5303970;26;20293;-86
2024/04/16 13:46:46;;;;;;;3.22;1.60;;;;;;;;;;5312817;26;20266;-85
2024/04/16 13:49:13;;;;;;;2.75;1.55;;;;;;;;;;5346445;26;20306;-85
2024/04/16 13:51:38;;;;;;;2.97;1.83;;;;;;;;;;5317285;26;20324;-86
2024/04/16 13:54:09;;;;;;;2.67;1.80;;;;;;;;;;5348724;26;20251;-87
2024/04/16 13:56:35;;;;;;;3.72;1.80;;;;;;;;;;5312870;26;20283;-85
2024/04/16 13:59:01;;;;;;;1.80;1.50;;;;;;;;;;5304120;26;20289;-86
2024/04/16 14:01:29;;;;;;;2.83;1.83;;;;;;;;;;5301938;26;20306;-85
2024/04/16 14:03:54;;;;;;;2.30;1.80;;;;;;;;;;5330393;26;20690;-86
2024/04/16 14:06:20;;;;;;;2.53;2.17;;;;;;;;;;5321803;26;20665;-86
2024/04/16 14:08:45;;;;;;;2.55;2.00;;;;;;;;;;5299890;26;20252;-84
2024/04/16 14:11:11;;;;;;;2.47;1.80;;;;;;;;;;5318325;26;20239;-84
2024/04/16 14:13:36;;;;;;;3.13;2.37;;;;;;;;;;5318263;26;20281;-84
2024/04/16 14:16:02;;;;;;;3.70;2.80;;;;;;;;;;5351355;26;20357;-82
2024/04/16 14:18:28;;;;;;;3.67;2.57;;;;;;;;;;5322040;26;20270;-87
2024/04/16 14:20:53;;;;;;;4.07;2.60;;;;;;;;;;5329457;26;20247;-87
2024/04/16 14:23:21;;;;;;;3.17;2.40;;;;;;;;;;5359822;26;20292;-87
2024/04/16 14:25:49;;;;;;;4.03;2.80;;;;;;;;;;5324573;26;20251;-77
2024/04/16 14:28:15;;;;;;;3.67;2.70;;;;;;;;;;5309205;26;20305;-79
2024/04/16 14:30:42;;;;;;;3.40;2.80;;;;;;;;;;5327793;26;20696;-78
2024/04/16 14:33:08;;;;;;;3.43;2.70;;;;;;;;;;5328700;26;20259;-77
2024/04/16 14:35:36;;;;;;;3.50;2.60;;;;;;;;;;5329327;26;20259;-78
2024/04/16 14:38:02;;;;;;;3.20;2.67;;;;;;;;;;5301002;26;20779;-77
2024/04/16 14:40:29;;;;;;;4.03;2.60;;;;;;;;;;5268838;26;20323;-75
2024/04/16 14:42:55;;;;;;;3.67;2.87;;;;;;;;;;5345744;26;20331;-78
2024/04/16 14:45:26;;;;;;;3.60;3.13;;;;;;;;;;5326321;26;20350;-84